Time;durP1;ratioP1;P1;durP2;ratioP2;P2;SDS_P1;SDS_P2;PMS_P1;PMS_P2;Temp;Humidity;BMP_temperature;BMP_pressure;BME280_temperature;BME280_humidity;BME280_pressure;Samples;Min_cycle;Max_cycle;Signal;HPM_P1;HPM_P2
2022/03/12 00:01:06;;;;;;;28.67;19.42;;;;;;;10.19;47.79;99348.66;4968205;28;20192;-78
2022/03/12 00:03:32;;;;;;;16.02;12.10;;;;;;;10.41;59.71;99340.19;4968349;28;20565;-79
2022/03/12 00:06:00;;;;;;;18.02;12.20;;;;;;;10.55;59.18;99343.84;4967664;28;20280;-78
2022/03/12 00:08:34;;;;;;;16.08;10.90;;;;;;;10.59;62.63;99340.03;4965976;28;20643;-77
2022/03/12 00:11:00;;;;;;;11.23;8.77;;;;;;;10.57;71.55;99348.19;4971242;28;20192;-77
2022/03/12 00:13:28;;;;;;;13.43;9.45;;;;;;;10.50;72.65;99345.97;4971858;28;20559;-77
2022/03/12 00:15:58;;;;;;;9.95;7.90;;;;;;;10.56;78.54;99346.47;4968144;28;20195;-77
2022/03/12 00:18:31;;;;;;;11.85;8.88;;;;;;;10.52;79.87;99349.44;4968293;28;20197;-78
2022/03/12 00:21:02;;;;;;;9.93;7.13;;;;;;;10.59;82.33;99350.78;4967280;28;20195;-78
2022/03/12 00:23:29;;;;;;;9.75;7.40;;;;;;;10.51;84.07;99359.31;4973107;28;20531;-79
2022/03/12 00:25:57;;;;;;;11.02;7.53;;;;;;;10.74;84.09;99360.59;4961113;28;20315;-78
2022/03/12 00:28:23;;;;;;;7.72;6.10;;;;;;;10.63;87.13;99355.03;4967009;28;20226;-78
2022/03/12 00:30:52;;;;;;;10.85;7.13;;;;;;;10.76;88.77;99357.78;4958295;28;20188;-79
2022/03/12 00:33:20;;;;;;;6.75;5.72;;;;;;;10.77;90.70;99359.53;4958540;28;20197;-79
2022/03/12 00:35:48;;;;;;;6.65;5.75;;;;;;;10.71;92.71;99365.31;4957190;28;20227;-78
2022/03/12 00:38:15;;;;;;;6.25;5.20;;;;;;;10.57;97.23;99374.25;4972208;28;20207;-78
2022/03/12 00:40:42;;;;;;;6.25;5.15;;;;;;;10.75;97.53;99366.84;4970417;28;20199;-78
2022/03/12 00:43:09;;;;;;;8.63;6.22;;;;;;;10.77;98.01;99376.56;4966730;28;20319;-78
2022/03/12 00:45:36;;;;;;;11.38;5.45;;;;;;;10.72;100.00;99380.50;4965033;28;20203;-78
2022/03/12 00:48:04;;;;;;;8.50;5.47;;;;;;;10.83;100.00;99380.69;4966056;28;20543;-78
2022/03/12 00:50:31;;;;;;;8.07;5.82;;;;;;;10.69;100.00;99380.69;4972630;28;20192;-78
2022/03/12 00:52:57;;;;;;;8.65;6.05;;;;;;;10.74;100.00;99379.47;4967921;28;20197;-78
2022/03/12 00:55:24;;;;;;;9.35;6.63;;;;;;;10.68;100.00;99381.66;4977854;28;20204;-78
2022/03/12 00:57:50;;;;;;;10.07;6.65;;;;;;;10.64;100.00;99384.53;4965566;28;20634;-78
2022/03/12 01:00:20;;;;;;;9.52;5.88;;;;;;;10.75;100.00;99391.09;4965111;28;20662;-78
2022/03/12 01:02:47;;;;;;;8.50;6.63;;;;;;;10.83;100.00;99399.53;4957611;28;20319;-78
2022/03/12 01:05:17;;;;;;;11.80;7.03;;;;;;;10.84;100.00;99396.75;4972343;28;20570;-78
2022/03/12 01:07:44;;;;;;;9.82;6.15;;;;;;;10.64;100.00;99395.28;4971793;28;20196;-78
2022/03/12 01:10:10;;;;;;;10.48;7.70;;;;;;;10.72;100.00;99397.53;4970300;28;20543;-78
2022/03/12 01:12:37;;;;;;;8.52;6.38;;;;;;;10.71;100.00;99411.09;4972093;28;20208;-78
2022/03/12 01:15:04;;;;;;;12.00;8.40;;;;;;;10.54;100.00;99391.44;4968319;28;20199;-78
2022/03/12 01:17:33;;;;;;;11.60;7.57;;;;;;;10.69;100.00;99402.22;4964381;28;20211;-78
2022/03/12 01:20:02;;;;;;;9.52;7.60;;;;;;;10.73;100.00;99398.41;4972130;28;20239;-78
2022/03/12 01:22:33;;;;;;;8.73;7.00;;;;;;;10.65;100.00;99396.19;4972081;28;20218;-79
2022/03/12 01:24:59;;;;;;;11.93;7.90;;;;;;;10.79;100.00;99389.94;4971944;28;20555;-78
2022/03/12 01:27:26;;;;;;;10.68;6.45;;;;;;;10.78;100.00;99389.06;4971280;28;20546;-78
2022/03/12 01:29:52;;;;;;;10.90;7.93;;;;;;;10.79;100.00;99390.81;4972494;28;20202;-78
2022/03/12 01:32:19;;;;;;;8.13;6.00;;;;;;;10.74;100.00;99387.53;4971587;28;20183;-78
2022/03/12 01:34:46;;;;;;;9.20;6.63;;;;;;;10.72;100.00;99389.47;4971837;28;20204;-78
2022/03/12 01:37:19;;;;;;;7.68;6.28;;;;;;;10.77;100.00;99389.16;4970753;28;20533;-79
2022/03/12 01:39:47;;;;;;;9.23;6.95;;;;;;;10.79;100.00;99384.56;4965449;28;20870;-78
2022/03/12 01:42:15;;;;;;;8.40;6.97;;;;;;;10.83;100.00;99386.06;4970571;28;20216;-78
2022/03/12 01:44:41;;;;;;;7.88;5.97;;;;;;;10.89;100.00;99391.09;4970885;28;20192;-79
2022/03/12 01:47:10;;;;;;;8.70;6.47;;;;;;;10.97;100.00;99374.47;4970892;28;20590;-79
2022/03/12 01:49:38;;;;;;;9.48;6.80;;;;;;;10.96;100.00;99376.25;4965532;28;20203;-78
2022/03/12 01:52:07;;;;;;;8.65;7.10;;;;;;;10.94;100.00;99383.56;4971744;28;20547;-78
2022/03/12 01:54:34;;;;;;;8.80;6.38;;;;;;;10.96;100.00;99375.41;4964049;28;20204;-78
2022/03/12 01:57:03;;;;;;;10.05;7.38;;;;;;;10.78;100.00;99378.28;4970262;28;20200;-78
2022/03/12 01:59:29;;;;;;;7.85;6.18;;;;;;;10.90;100.00;99375.78;4967813;28;20243;-78
2022/03/12 02:01:57;;;;;;;10.75;7.10;;;;;;;10.87;100.00;99379.53;4972230;28;20229;-78
2022/03/12 02:04:25;;;;;;;9.20;6.97;;;;;;;10.92;100.00;99387.31;4965728;28;20209;-78
2022/03/12 02:06:52;;;;;;;8.38;6.05;;;;;;;10.90;98.91;99384.75;4976218;28;20200;-78
2022/03/12 02:09:21;;;;;;;9.52;7.60;;;;;;;10.91;99.32;99382.91;4972200;28;20672;-78
2022/03/12 02:11:51;;;;;;;7.80;5.78;;;;;;;10.93;99.17;99387.25;4965561;28;20247;-78
2022/03/12 02:14:21;;;;;;;11.00;7.57;;;;;;;10.84;99.66;99385.13;4971058;28;20185;-79
2022/03/12 02:16:50;;;;;;;17.48;10.07;;;;;;;10.89;99.31;99388.38;4973566;28;20630;-79
2022/03/12 02:19:18;;;;;;;10.82;7.10;;;;;;;10.81;99.78;99391.56;4972695;28;20234;-78
2022/03/12 02:21:50;;;;;;;9.98;5.88;;;;;;;10.94;98.71;99391.66;4973369;28;20199;-79
2022/03/12 02:24:19;;;;;;;11.10;6.97;;;;;;;10.92;99.28;99393.59;4972875;28;20216;-78
2022/03/12 02:26:47;;;;;;;11.82;7.80;;;;;;;10.94;100.00;99394.34;4972621;28;20655;-78
2022/03/12 02:29:19;;;;;;;10.48;7.80;;;;;;;10.96;100.00;99392.41;4969606;28;20186;-78
2022/03/12 02:31:49;;;;;;;8.98;6.45;;;;;;;11.13;98.51;99394.06;4967982;28;20203;-78
2022/03/12 02:34:21;;;;;;;8.32;7.00;;;;;;;11.08;97.57;99396.19;4967540;28;20188;-79
2022/03/12 02:36:49;;;;;;;8.20;6.57;;;;;;;11.03;98.59;99396.50;4972724;28;20194;-78
2022/03/12 02:39:18;;;;;;;8.25;6.30;;;;;;;10.88;100.00;99400.13;4973502;28;20539;-79
2022/03/12 02:41:44;;;;;;;8.35;6.18;;;;;;;10.97;100.00;99399.56;4975099;28;20222;-75
2022/03/12 02:44:19;;;;;;;8.60;6.82;;;;;;;10.92;100.00;99395.41;4970968;28;20224;-77
2022/03/12 02:47:11;;;;;;;8.98;6.63;;;;;;;10.87;100.00;99400.22;4971327;28;20199;-76
2022/03/12 02:49:42;;;;;;;8.63;6.25;;;;;;;10.75;100.00;99396.47;4970985;28;20188;-79
2022/03/12 02:52:09;;;;;;;10.30;6.95;;;;;;;10.80;100.00;99397.03;4971173;28;20192;-79
2022/03/12 02:54:36;;;;;;;8.75;6.80;;;;;;;10.77;100.00;99399.94;4974633;28;20193;-78
2022/03/12 02:57:03;;;;;;;10.18;6.53;;;;;;;10.71;100.00;99398.47;4968457;28;20216;-78
2022/03/12 02:59:30;;;;;;;8.60;6.32;;;;;;;10.74;100.00;99403.69;4974067;28;20188;-78
2022/03/12 03:01:57;;;;;;;8.30;6.57;;;;;;;10.73;100.00;99395.69;4972614;28;20184;-78
2022/03/12 03:04:24;;;;;;;8.43;7.45;;;;;;;10.52;100.00;99395.22;4968104;28;20223;-78
2022/03/12 03:06:52;;;;;;;9.85;7.60;;;;;;;10.43;100.00;99396.63;4970025;28;20288;-78
2022/03/12 03:09:19;;;;;;;9.48;7.03;;;;;;;10.37;100.00;99395.16;4966495;28;20201;-78
2022/03/12 03:11:46;;;;;;;8.25;6.80;;;;;;;10.42;100.00;99393.06;4958336;28;20232;-78
2022/03/12 03:14:15;;;;;;;10.98;7.78;;;;;;;10.28;100.00;99390.31;4958768;28;20635;-79
2022/03/12 03:16:42;;;;;;;9.18;7.70;;;;;;;10.55;100.00;99397.69;4975298;28;20227;-79
2022/03/12 03:19:09;;;;;;;11.55;7.40;;;;;;;10.60;100.00;99396.44;4974670;28;20227;-78
2022/03/12 03:21:37;;;;;;;10.70;6.85;;;;;;;10.63;100.00;99396.28;4975157;28;20196;-78
2022/03/12 03:24:06;;;;;;;9.70;7.30;;;;;;;10.63;100.00;99390.88;4971164;28;20212;-78
2022/03/12 03:26:54;;;;;;;8.98;7.15;;;;;;;10.52;100.00;99398.75;4974105;28;20211;-78
2022/03/12 03:29:21;;;;;;;10.57;7.68;;;;;;;10.69;100.00;99399.53;4953399;29;20533;-79
2022/03/12 03:31:48;;;;;;;9.40;7.18;;;;;;;10.72;100.00;99415.50;4965491;28;20613;-78
2022/03/12 03:34:15;;;;;;;9.07;6.97;;;;;;;10.79;100.00;99411.50;4969188;28;20189;-79
2022/03/12 03:36:42;;;;;;;10.93;7.38;;;;;;;10.82;100.00;99409.44;4960881;28;20551;-79
2022/03/12 03:39:10;;;;;;;9.00;7.32;;;;;;;10.70;100.00;99409.38;4970871;28;20607;-77
2022/03/12 03:41:37;;;;;;;8.35;7.00;;;;;;;10.48;100.00;99415.19;4968167;28;20627;-77
2022/03/12 03:44:05;;;;;;;8.63;6.85;;;;;;;10.47;100.00;99417.03;4967726;28;20219;-77
2022/03/12 03:46:32;;;;;;;9.13;7.32;;;;;;;10.61;100.00;99421.56;4967860;28;20196;-78
2022/03/12 03:48:59;;;;;;;7.93;6.50;;;;;;;10.74;100.00;99421.66;4960515;28;20185;-77
2022/03/12 03:51:25;;;;;;;9.68;7.50;;;;;;;10.78;100.00;99423.19;4967683;28;20296;-78
2022/03/12 03:53:52;;;;;;;8.65;7.20;;;;;;;10.83;100.00;99423.78;4973649;28;20181;-78
2022/03/12 03:56:21;;;;;;;8.85;7.05;;;;;;;10.75;100.00;99420.72;4967698;28;20192;-79
2022/03/12 03:58:47;;;;;;;10.75;7.90;;;;;;;10.79;100.00;99424.94;4966773;28;20219;-79
2022/03/12 04:01:18;;;;;;;8.38;6.70;;;;;;;10.88;100.00;99424.38;4967194;28;20193;-78
2022/03/12 04:03:48;;;;;;;12.73;7.18;;;;;;;10.92;100.00;99423.22;4972451;28;20218;-78
2022/03/12 04:06:15;;;;;;;9.90;7.80;;;;;;;10.84;100.00;99421.00;4973952;28;20657;-78
2022/03/12 04:08:42;;;;;;;10.85;6.97;;;;;;;10.88;100.00;99426.19;4972187;28;21920;-78
2022/03/12 04:11:15;;;;;;;8.95;7.53;;;;;;;10.93;99.55;99426.78;4967010;28;20644;-78
2022/03/12 04:13:43;;;;;;;11.50;7.88;;;;;;;10.99;98.79;99429.97;4970672;28;20300;-78
2022/03/12 04:16:10;;;;;;;9.57;6.88;;;;;;;10.82;99.43;99420.22;4963261;28;20593;-79
2022/03/12 04:18:37;;;;;;;9.68;7.20;;;;;;;10.94;98.91;99425.81;4970665;28;20199;-78
2022/03/12 04:21:05;;;;;;;11.88;7.35;;;;;;;11.01;99.06;99432.53;4961366;28;20184;-78
2022/03/12 04:23:31;;;;;;;11.52;6.97;;;;;;;10.93;99.08;99424.94;4971509;28;20223;-78
2022/03/12 04:26:00;;;;;;;9.25;7.70;;;;;;;10.88;99.30;99429.75;4967501;28;20196;-78
2022/03/12 04:28:32;;;;;;;8.63;6.60;;;;;;;10.99;95.47;99429.97;4963602;28;20223;-78
2022/03/12 04:31:00;;;;;;;9.20;7.25;;;;;;;10.96;96.39;99424.75;4962663;28;20227;-78
2022/03/12 04:33:28;;;;;;;9.10;6.90;;;;;;;10.92;95.55;99425.94;4963434;28;20181;-78
2022/03/12 04:35:56;;;;;;;9.73;6.97;;;;;;;10.96;95.59;99437.34;4965300;28;20305;-78
2022/03/12 04:38:23;;;;;;;10.25;8.05;;;;;;;10.96;94.88;99437.34;4965767;28;20225;-79
2022/03/12 04:40:50;;;;;;;9.70;7.90;;;;;;;10.91;95.70;99436.78;4965301;28;20196;-78
2022/03/12 04:43:17;;;;;;;10.32;7.63;;;;;;;10.85;95.51;99432.63;4965189;28;20212;-78
2022/03/12 04:45:46;;;;;;;10.35;6.70;;;;;;;10.84;96.12;99437.16;4965673;28;20180;-78
2022/03/12 04:48:17;;;;;;;9.85;7.35;;;;;;;10.89;97.26;99427.94;4964871;28;20642;-78
2022/03/12 04:50:44;;;;;;;9.35;7.65;;;;;;;10.67;97.43;99436.47;4966526;28;20627;-78
2022/03/12 04:53:11;;;;;;;9.13;6.93;;;;;;;10.51;97.28;99439.22;4973013;28;20190;-79
2022/03/12 04:55:38;;;;;;;9.02;7.30;;;;;;;10.85;95.14;99440.72;4972735;28;20202;-78
2022/03/12 04:58:05;;;;;;;10.38;7.53;;;;;;;10.88;95.14;99432.47;4972659;28;20204;-78
2022/03/12 05:00:35;;;;;;;10.02;7.20;;;;;;;10.88;96.49;99436.97;4972190;28;20207;-78
2022/03/12 05:03:05;;;;;;;8.52;6.70;;;;;;;10.94;95.89;99441.97;4970816;28;20207;-78
2022/03/12 05:05:33;;;;;;;10.45;7.85;;;;;;;10.91;95.02;99444.88;4971359;28;20189;-78
2022/03/12 05:07:59;;;;;;;10.73;7.82;;;;;;;10.92;95.41;99443.91;4972022;28;20194;-78
2022/03/12 05:10:29;;;;;;;11.10;8.00;;;;;;;10.96;94.72;99449.00;4972021;28;21011;-78
2022/03/12 05:13:00;;;;;;;9.88;8.05;;;;;;;10.97;92.86;99450.75;4958748;28;20332;-79
2022/03/12 05:15:27;;;;;;;10.18;7.45;;;;;;;10.98;92.11;99459.69;4956229;28;20219;-78
2022/03/12 05:17:57;;;;;;;10.90;8.00;;;;;;;11.02;91.74;99447.75;4971220;28;20191;-78
2022/03/12 05:20:27;;;;;;;8.32;6.85;;;;;;;11.02;90.23;99450.47;4971046;28;20234;-78
2022/03/12 05:22:55;;;;;;;10.27;7.25;;;;;;;11.06;88.79;99447.47;4972038;28;20203;-78
2022/03/12 05:25:22;;;;;;;12.43;8.23;;;;;;;11.05;89.47;99445.72;4970890;28;20220;-78
2022/03/12 05:27:52;;;;;;;12.10;7.90;;;;;;;11.05;87.86;99453.81;4970786;28;20630;-78
2022/03/12 05:30:19;;;;;;;14.45;8.82;;;;;;;10.93;85.56;99456.41;4970950;28;20208;-79
2022/03/12 05:32:46;;;;;;;8.73;7.05;;;;;;;11.01;84.12;99452.28;4972390;28;20188;-78
2022/03/12 05:35:15;;;;;;;11.20;7.30;;;;;;;11.01;85.71;99454.09;4970325;28;20192;-79
2022/03/12 05:37:44;;;;;;;9.57;7.40;;;;;;;10.95;85.91;99459.88;4970813;28;20223;-79
2022/03/12 05:40:14;;;;;;;9.27;6.47;;;;;;;10.91;84.66;99463.72;4974361;28;20192;-79
2022/03/12 05:42:43;;;;;;;9.75;7.00;;;;;;;11.03;81.65;99463.84;4974156;28;20188;-78
2022/03/12 05:45:10;;;;;;;9.48;6.75;;;;;;;11.12;81.70;99470.47;4962966;28;20651;-77
2022/03/12 05:47:40;;;;;;;11.68;7.45;;;;;;;11.15;79.86;99459.50;4957547;29;20193;-77
2022/03/12 05:50:09;;;;;;;10.40;8.27;;;;;;;11.22;78.45;99463.53;4972357;28;20240;-77
2022/03/12 05:52:36;;;;;;;9.60;7.70;;;;;;;11.11;81.12;99462.50;4969070;28;20200;-77
2022/03/12 05:55:06;;;;;;;10.25;7.60;;;;;;;11.15;82.43;99472.97;4975111;28;20188;-77
2022/03/12 05:57:33;;;;;;;8.50;6.78;;;;;;;11.18;81.75;99471.91;4972306;28;20224;-77
2022/03/12 06:00:01;;;;;;;8.85;7.00;;;;;;;11.19;81.31;99476.34;4972978;28;20203;-77
2022/03/12 06:02:29;;;;;;;10.13;7.63;;;;;;;11.23;80.12;99476.03;4970722;28;20287;-78
2022/03/12 06:04:59;;;;;;;8.82;7.50;;;;;;;11.27;82.32;99476.72;4972358;28;20891;-77
2022/03/12 06:07:27;;;;;;;11.35;7.32;;;;;;;11.02;80.93;99467.47;4971047;28;20255;-77
2022/03/12 06:09:54;;;;;;;10.10;7.50;;;;;;;11.13;81.49;99474.91;4974899;28;20188;-77
2022/03/12 06:12:26;;;;;;;9.02;7.13;;;;;;;11.19;79.36;99470.94;4976469;28;20192;-77
2022/03/12 06:14:56;;;;;;;9.50;7.22;;;;;;;11.27;80.22;99476.72;4974744;28;20275;-78
2022/03/12 06:17:24;;;;;;;13.57;8.43;;;;;;;11.25;81.24;99473.25;4969063;28;20288;-77
2022/03/12 06:19:50;;;;;;;13.45;8.23;;;;;;;11.25;79.98;99474.13;4973570;28;20261;-77
2022/03/12 06:22:17;;;;;;;9.93;7.60;;;;;;;11.20;80.57;99470.84;4968643;28;20195;-77
2022/03/12 06:24:45;;;;;;;10.50;7.47;;;;;;;11.36;80.29;99476.16;4971264;28;20662;-77
2022/03/12 06:27:12;;;;;;;8.52;7.10;;;;;;;11.33;80.03;99481.75;4964414;28;20226;-77
2022/03/12 06:29:39;;;;;;;9.77;8.40;;;;;;;11.41;79.97;99483.94;4969589;28;20211;-77
2022/03/12 06:32:09;;;;;;;8.35;6.93;;;;;;;11.35;81.02;99476.22;4962738;28;20554;-77
2022/03/12 06:34:36;;;;;;;9.80;7.97;;;;;;;11.38;81.06;99481.44;4972409;28;20231;-77
2022/03/12 06:37:04;;;;;;;10.68;7.70;;;;;;;11.35;81.56;99487.91;4969946;28;20565;-77
2022/03/12 06:39:30;;;;;;;9.38;7.28;;;;;;;11.33;81.81;99487.13;4969181;28;20630;-77
2022/03/12 06:41:58;;;;;;;10.32;7.30;;;;;;;11.28;82.71;99486.53;4975301;28;20558;-77
2022/03/12 06:44:30;;;;;;;10.13;7.55;;;;;;;11.20;83.72;99499.66;4975207;28;20597;-77
2022/03/12 06:46:56;;;;;;;10.07;8.02;;;;;;;11.09;82.19;99494.06;4969570;28;20627;-76
2022/03/12 06:49:24;;;;;;;9.05;6.90;;;;;;;11.18;82.98;99497.03;4971717;28;20188;-76
2022/03/12 06:51:52;;;;;;;9.98;7.40;;;;;;;11.29;81.42;99496.38;4968166;28;20211;-77
2022/03/12 06:54:19;;;;;;;11.60;8.30;;;;;;;11.34;81.26;99493.38;4975348;28;20222;-77
2022/03/12 06:56:46;;;;;;;12.25;7.80;;;;;;;11.28;80.76;99497.31;4975001;28;20240;-78
2022/03/12 06:59:12;;;;;;;11.38;7.93;;;;;;;11.46;79.23;99503.38;4975182;28;20206;-78
2022/03/12 07:01:39;;;;;;;12.50;7.90;;;;;;;11.66;76.89;99502.13;4975261;28;20194;-77
2022/03/12 07:04:06;;;;;;;11.60;7.78;;;;;;;11.80;76.49;99504.81;4974959;28;20212;-77
2022/03/12 07:06:35;;;;;;;14.38;8.40;;;;;;;11.73;76.08;99503.44;4975441;28;20200;-78
2022/03/12 07:09:01;;;;;;;10.80;6.80;;;;;;;11.64;76.01;99512.13;4975369;28;20199;-78
2022/03/12 07:11:32;;;;;;;9.88;7.82;;;;;;;11.81;76.00;99516.47;4975042;28;20199;-78
2022/03/12 07:13:58;;;;;;;9.13;7.28;;;;;;;11.85;74.99;99513.47;4973637;28;20192;-78
2022/03/12 07:16:25;;;;;;;9.90;7.75;;;;;;;11.86;74.77;99511.63;4969785;28;20228;-79
2022/03/12 07:18:52;;;;;;;9.75;7.63;;;;;;;11.52;75.76;99512.94;4975064;28;20236;-78
2022/03/12 07:21:18;;;;;;;8.35;6.90;;;;;;;11.68;74.78;99508.28;4974835;28;20602;-78
2022/03/12 07:23:46;;;;;;;10.50;7.80;;;;;;;11.79;73.04;99511.16;4975020;28;20215;-78
2022/03/12 07:26:13;;;;;;;9.90;8.00;;;;;;;11.95;73.36;99521.84;4973802;28;20188;-78
2022/03/12 07:28:40;;;;;;;7.80;6.47;;;;;;;12.07;71.61;99529.16;4974931;28;20204;-78
2022/03/12 07:31:07;;;;;;;8.25;7.00;;;;;;;12.09;69.22;99523.66;4974381;28;20219;-78
2022/03/12 07:33:34;;;;;;;10.68;7.10;;;;;;;12.21;66.31;99522.84;4974743;28;20200;-78
2022/03/12 07:36:01;;;;;;;7.18;5.95;;;;;;;12.16;67.15;99514.16;4972952;28;20198;-78
2022/03/12 07:38:27;;;;;;;8.90;7.15;;;;;;;12.37;67.10;99527.22;4974848;28;20623;-78
2022/03/12 07:40:56;;;;;;;9.13;7.22;;;;;;;12.38;65.65;99524.41;4971082;28;20293;-78
2022/03/12 07:43:22;;;;;;;10.00;7.50;;;;;;;12.20;67.11;99522.94;4972501;28;20200;-78
2022/03/12 07:45:49;;;;;;;8.73;6.18;;;;;;;12.36;63.10;99520.94;4974451;28;20299;-78
2022/03/12 07:48:15;;;;;;;9.07;6.28;;;;;;;12.53;61.39;99525.25;4970009;28;20283;-78
2022/03/12 07:50:44;;;;;;;9.65;7.55;;;;;;;12.62;61.23;99530.00;4973560;28;20215;-78
2022/03/12 07:53:11;;;;;;;8.00;6.15;;;;;;;12.65;61.60;99537.03;4974624;28;20622;-77
2022/03/12 07:55:38;;;;;;;15.98;8.77;;;;;;;12.73;61.00;99532.84;4974287;28;20190;-77
2022/03/12 07:58:06;;;;;;;10.90;6.43;;;;;;;12.64;61.11;99538.88;4971408;28;20204;-78
2022/03/12 08:00:33;;;;;;;8.25;6.30;;;;;;;12.78;60.46;99542.50;4967195;28;20231;-76
2022/03/12 08:03:00;;;;;;;9.23;6.57;;;;;;;12.68;60.97;99532.28;4974158;28;20193;-78
2022/03/12 08:05:27;;;;;;;11.10;6.75;;;;;;;12.91;60.54;99533.44;4974153;28;20773;-77
2022/03/12 08:07:54;;;;;;;8.93;6.50;;;;;;;12.87;58.79;99531.03;4974332;28;20198;-77
2022/03/12 08:10:21;;;;;;;8.43;6.22;;;;;;;13.00;58.95;99537.34;4973902;28;20204;-77
2022/03/12 08:12:48;;;;;;;10.40;6.68;;;;;;;12.98;57.88;99532.97;4974052;28;20208;-78
2022/03/12 08:15:16;;;;;;;6.88;5.80;;;;;;;13.04;58.87;99535.28;4973692;28;20199;-77
2022/03/12 08:17:44;;;;;;;12.82;7.18;;;;;;;13.04;58.50;99533.44;4973668;28;20216;-78
2022/03/12 08:20:11;;;;;;;9.88;6.75;;;;;;;13.19;57.69;99533.34;4973362;28;20251;-77
2022/03/12 08:22:38;;;;;;;9.07;6.65;;;;;;;13.04;57.13;99532.56;4973619;28;20222;-78
2022/03/12 08:25:07;;;;;;;8.82;6.40;;;;;;;13.21;57.90;99539.53;4973150;28;20579;-81
2022/03/12 08:27:35;;;;;;;8.05;6.20;;;;;;;12.70;58.84;99534.88;4974001;28;20234;-81
2022/03/12 08:30:02;;;;;;;9.55;7.60;;;;;;;13.13;58.11;99537.34;4992871;28;20205;-82
2022/03/12 08:32:30;;;;;;;9.27;6.47;;;;;;;13.21;57.80;99542.22;4992688;28;20647;-81
2022/03/12 08:34:57;;;;;;;11.05;8.00;;;;;;;13.48;57.24;99542.16;4992586;28;20299;-80
2022/03/12 08:37:24;;;;;;;7.00;6.30;;;;;;;13.55;55.65;99544.28;4993110;28;20601;-83
2022/03/12 08:39:51;;;;;;;10.88;7.00;;;;;;;13.62;56.41;99549.28;4988451;28;20207;-80
2022/03/12 08:42:17;;;;;;;14.25;7.70;;;;;;;13.64;56.04;99550.03;4991821;28;20190;-80
2022/03/12 08:44:44;;;;;;;8.02;6.30;;;;;;;13.81;55.61;99544.25;4991689;28;20693;-78
2022/03/12 08:47:11;;;;;;;9.63;6.57;;;;;;;13.77;55.13;99553.59;4992005;28;20192;-80
2022/03/12 08:49:38;;;;;;;10.27;7.00;;;;;;;13.70;54.76;99545.06;4991848;28;20501;-77
2022/03/12 08:52:06;;;;;;;9.48;6.70;;;;;;;13.76;55.17;99563.53;4991579;28;20208;-80
2022/03/12 08:54:32;;;;;;;9.82;7.60;;;;;;;13.77;55.49;99548.19;4991497;28;20188;-80
2022/03/12 08:56:59;;;;;;;9.65;6.70;;;;;;;13.77;54.70;99543.63;4992042;28;20189;-80
2022/03/12 08:59:25;;;;;;;15.45;7.55;;;;;;;13.68;55.38;99538.88;4991774;28;20594;-80
2022/03/12 09:01:52;;;;;;;9.38;6.45;;;;;;;13.81;54.47;99544.25;4974068;28;20243;-79
2022/03/12 09:04:19;;;;;;;11.32;6.82;;;;;;;13.98;54.43;99541.19;4972068;28;20198;-80
2022/03/12 09:06:48;;;;;;;8.90;6.60;;;;;;;14.07;53.30;99538.81;4971873;28;20210;-81
2022/03/12 09:09:16;;;;;;;9.60;6.70;;;;;;;14.14;52.53;99540.06;4972702;28;20218;-81
2022/03/12 09:11:42;;;;;;;9.60;6.10;;;;;;;14.08;52.90;99545.94;4972251;28;20203;-81
2022/03/12 09:14:10;;;;;;;19.02;7.28;;;;;;;14.26;53.19;99557.25;4971956;28;20203;-80
2022/03/12 09:16:37;;;;;;;10.82;7.07;;;;;;;14.50;52.14;99547.28;4973101;28;20202;-81
2022/03/12 09:19:04;;;;;;;9.52;7.05;;;;;;;14.49;52.04;99544.69;4973373;28;20239;-80
2022/03/12 09:21:31;;;;;;;21.05;7.32;;;;;;;14.62;51.43;99542.81;4972839;28;20191;-80
2022/03/12 09:23:59;;;;;;;9.25;6.88;;;;;;;14.55;51.06;99541.56;4972661;28;20547;-80
2022/03/12 09:26:25;;;;;;;7.13;6.40;;;;;;;14.77;50.73;99544.38;4966886;28;20861;-80
2022/03/12 09:28:52;;;;;;;9.30;6.75;;;;;;;14.97;50.25;99536.56;4991594;28;20286;-77
2022/03/12 09:31:19;;;;;;;10.10;6.57;;;;;;;14.53;50.09;99536.22;4979026;28;20203;-78
2022/03/12 09:33:45;;;;;;;13.90;7.18;;;;;;;14.74;50.35;99525.66;4971651;28;20209;-79
2022/03/12 09:36:12;;;;;;;9.65;6.30;;;;;;;15.00;48.63;99528.19;4972234;28;20213;-77
2022/03/12 09:38:39;;;;;;;7.70;6.18;;;;;;;14.97;49.43;99525.72;4971783;28;20277;-76
2022/03/12 09:41:07;;;;;;;11.52;7.43;;;;;;;15.49;47.60;99523.44;4971799;28;20620;-78
2022/03/12 09:43:34;;;;;;;8.77;6.70;;;;;;;15.20;47.76;99526.63;4972022;28;20206;-78
2022/03/12 09:46:01;;;;;;;9.98;6.30;;;;;;;14.90;48.35;99513.59;4971795;28;20216;-78
2022/03/12 09:48:28;;;;;;;10.18;6.45;;;;;;;14.82;49.06;99513.34;4971554;28;20211;-78
2022/03/12 09:50:55;;;;;;;9.60;6.20;;;;;;;14.56;49.71;99519.78;4971744;28;20184;-78
2022/03/12 09:53:22;;;;;;;8.57;6.68;;;;;;;14.38;48.63;99521.13;4972103;28;20550;-78
2022/03/12 09:55:48;;;;;;;7.82;6.50;;;;;;;13.94;49.97;99528.00;4971822;28;20203;-78
2022/03/12 09:58:16;;;;;;;11.80;5.80;;;;;;;14.01;49.73;99528.41;4971644;28;20194;-79
2022/03/12 10:00:44;;;;;;;8.98;7.00;;;;;;;14.41;48.67;99523.63;4967371;28;20295;-76
2022/03/12 10:03:11;;;;;;;8.00;5.60;;;;;;;14.42;48.39;99535.31;4971592;28;20242;-76
2022/03/12 10:05:38;;;;;;;10.95;5.93;;;;;;;14.26;48.64;99528.31;4971537;28;20218;-81
2022/03/12 10:08:05;;;;;;;8.20;6.18;;;;;;;14.26;48.79;99520.19;4971964;28;20190;-78
2022/03/12 10:10:32;;;;;;;8.85;5.93;;;;;;;14.57;47.75;99523.34;4971476;28;20214;-78
2022/03/12 10:12:58;;;;;;;12.38;6.65;;;;;;;14.46;48.01;99526.81;4971837;28;20198;-79
2022/03/12 10:15:26;;;;;;;8.27;6.85;;;;;;;14.85;47.30;99522.09;4971763;28;20293;-77
2022/03/12 10:17:53;;;;;;;6.90;5.97;;;;;;;14.63;47.12;99522.88;4971517;28;20189;-77
2022/03/12 10:20:19;;;;;;;8.68;5.50;;;;;;;15.14;45.95;99517.13;4971632;28;20237;-77
2022/03/12 10:22:46;;;;;;;10.63;6.18;;;;;;;15.69;44.79;99521.84;4971911;28;20192;-77
2022/03/12 10:25:14;;;;;;;10.07;6.80;;;;;;;16.07;44.34;99526.06;4974788;28;20672;-79
2022/03/12 10:27:41;;;;;;;8.40;6.10;;;;;;;15.35;44.42;99520.00;4975654;28;20204;-77
2022/03/12 10:30:09;;;;;;;7.45;5.68;;;;;;;15.19;45.58;99527.59;4975285;28;20204;-77
2022/03/12 10:32:44;;;;;;;8.50;5.60;;;;;;;15.59;44.15;99538.88;4969437;28;20196;-77
2022/03/12 10:35:12;;;;;;;9.60;6.80;;;;;;;15.35;44.53;99536.28;4972483;28;20213;-78
2022/03/12 10:37:39;;;;;;;8.65;5.88;;;;;;;15.04;44.97;99529.69;4969052;28;20664;-77
2022/03/12 10:40:09;;;;;;;7.80;5.72;;;;;;;15.31;44.50;99523.94;4975272;28;20196;-80
2022/03/12 10:42:38;;;;;;;8.82;6.55;;;;;;;15.23;44.73;99534.50;4971296;28;20192;-78
2022/03/12 10:45:08;;;;;;;10.85;6.57;;;;;;;14.73;45.97;99532.03;4961391;28;20204;-78
2022/03/12 10:47:42;;;;;;;7.78;6.07;;;;;;;15.09;45.29;99543.72;4975142;28;20598;-77
2022/03/12 10:50:11;;;;;;;7.55;5.72;;;;;;;15.26;44.42;99536.97;4967588;28;20663;-78
2022/03/12 10:52:44;;;;;;;8.27;5.50;;;;;;;15.30;44.63;99527.63;4967241;28;20203;-79
2022/03/12 10:55:15;;;;;;;8.77;5.65;;;;;;;15.59;43.74;99524.44;4974571;28;20195;-78
2022/03/12 10:57:54;;;;;;;7.53;5.95;;;;;;;15.66;43.47;99530.25;4992160;28;20191;-78
2022/03/12 11:00:21;;;;;;;11.18;5.82;;;;;;;15.52;43.81;99534.06;4970615;28;20219;-76
2022/03/12 11:02:54;;;;;;;20.95;13.00;;;;;;;15.48;43.92;99535.28;4973165;28;20202;-80
2022/03/12 11:05:27;;;;;;;8.82;5.25;;;;;;;15.86;43.24;99539.53;4968349;28;20225;-78
2022/03/12 11:08:15;;;;;;;8.95;6.85;;;;;;;15.57;43.69;99531.84;4974944;28;20204;-81
2022/03/12 11:10:50;;;;;;;7.43;5.80;;;;;;;15.51;43.54;99524.19;4975155;28;20189;-81
2022/03/12 11:13:34;;;;;;;8.32;6.50;;;;;;;15.80;43.67;99527.31;4975371;28;20191;-81
2022/03/12 11:16:12;;;;;;;9.95;6.32;;;;;;;16.33;42.93;99510.31;4975192;28;20180;-80
2022/03/12 11:18:46;;;;;;;7.43;6.10;;;;;;;16.33;42.07;99513.03;4975385;28;20203;-80
2022/03/12 11:21:14;;;;;;;8.48;5.90;;;;;;;16.31;41.87;99513.16;4972967;28;20658;-81
2022/03/12 11:23:42;;;;;;;7.57;5.65;;;;;;;16.34;42.07;99515.59;4975073;28;20670;-82
2022/03/12 11:26:09;;;;;;;9.38;5.60;;;;;;;16.61;41.62;99514.28;4974221;28;20234;-81
2022/03/12 11:28:37;;;;;;;9.68;5.82;;;;;;;16.80;40.32;99509.06;4966646;28;20198;-81
2022/03/12 11:31:06;;;;;;;6.03;5.40;;;;;;;16.81;40.22;99516.22;4975026;28;20590;-81
2022/03/12 11:33:34;;;;;;;15.82;6.30;;;;;;;16.68;40.19;99512.78;4975053;28;20628;-81